createdAt,value
2022-07-29T00:00:19.191Z,59.30
2022-07-29T00:02:46.550Z,59.10
2022-07-29T00:05:15.050Z,59.40
2022-07-29T00:07:42.542Z,60.00
2022-07-29T00:10:09.980Z,59.60
2022-07-29T00:12:37.408Z,60.00
2022-07-29T00:15:05.467Z,60.00
2022-07-29T00:17:32.679Z,59.60
2022-07-29T00:20:00.114Z,60.70
2022-07-29T00:22:27.263Z,60.00
2022-07-29T00:24:54.382Z,60.20
2022-07-29T00:27:21.748Z,60.60
2022-07-29T00:29:48.961Z,60.00
2022-07-29T00:32:16.108Z,60.00
2022-07-29T00:35:02.212Z,60.50
2022-07-29T00:37:29.750Z,60.90
2022-07-29T00:39:56.961Z,61.60
2022-07-29T00:42:24.223Z,61.70
2022-07-29T00:44:51.431Z,61.00
2022-07-29T00:47:18.720Z,61.10
2022-07-29T00:49:45.932Z,61.30
2022-07-29T00:52:16.985Z,61.30
2022-07-29T00:54:47.913Z,61.50
2022-07-29T00:57:18.776Z,61.40
2022-07-29T00:59:47.374Z,61.20
2022-07-29T01:02:15.515Z,61.30
2022-07-29T01:04:42.626Z,61.20
2022-07-29T01:07:09.926Z,61.20
2022-07-29T01:09:45.926Z,61.40
2022-07-29T01:12:16.380Z,61.50
2022-07-29T01:14:43.951Z,61.70
2022-07-29T01:17:12.146Z,61.70
2022-07-29T01:19:56.888Z,61.10
2022-07-29T01:22:36.395Z,62.20
2022-07-29T01:25:33.934Z,62.00
2022-07-29T01:28:01.135Z,62.50
2022-07-29T01:30:31.226Z,61.70
2022-07-29T01:33:01.488Z,61.80
2022-07-29T01:35:39.381Z,61.70
2022-07-29T01:38:15.213Z,63.00
2022-07-29T01:40:53.843Z,62.30
2022-07-29T01:43:22.712Z,62.00
2022-07-29T01:45:58.849Z,61.90
2022-07-29T01:48:32.545Z,61.70
2022-07-29T01:51:04.109Z,61.90
2022-07-29T01:53:55.161Z,62.00
2022-07-29T01:56:22.329Z,62.20
2022-07-29T01:58:49.505Z,62.50
2022-07-29T02:01:16.782Z,62.50
2022-07-29T02:03:47.253Z,62.60
2022-07-29T02:06:17.939Z,62.90
2022-07-29T02:08:48.070Z,63.00
2022-07-29T02:11:15.351Z,62.90
2022-07-29T02:13:42.810Z,64.20
2022-07-29T02:16:10.144Z,63.40
2022-07-29T02:18:38.334Z,63.50
2022-07-29T02:21:05.955Z,63.40
2022-07-29T02:23:50.057Z,63.50
2022-07-29T02:26:20.794Z,64.00
2022-07-29T02:28:48.652Z,64.20
2022-07-29T02:31:15.921Z,64.00
2022-07-29T02:33:43.819Z,64.60
2022-07-29T02:36:11.068Z,64.80
2022-07-29T02:38:53.795Z,64.80
2022-07-29T02:41:43.978Z,65.30
2022-07-29T02:44:22.193Z,66.20
2022-07-29T02:47:12.585Z,65.70
2022-07-29T02:49:50.067Z,65.90
2022-07-29T02:52:21.884Z,66.60
2022-07-29T02:54:56.150Z,66.70
2022-07-29T02:57:54.831Z,66.60
2022-07-29T03:00:24.398Z,67.20
2022-07-29T03:02:53.041Z,67.10
2022-07-29T03:05:20.990Z,67.10
2022-07-29T03:07:59.956Z,67.50
2022-07-29T03:10:27.068Z,67.20
2022-07-29T03:12:55.244Z,67.90
2022-07-29T03:15:22.980Z,68.10
2022-07-29T03:17:52.582Z,67.80
2022-07-29T03:20:19.759Z,68.20
2022-07-29T03:22:48.452Z,67.90
2022-07-29T03:25:17.165Z,68.10
2022-07-29T03:27:44.955Z,68.70
2022-07-29T03:30:13.005Z,68.50
2022-07-29T03:32:45.647Z,68.80
2022-07-29T03:35:13.027Z,68.70
2022-07-29T03:37:41.081Z,69.30
2022-07-29T03:40:09.895Z,69.10
2022-07-29T03:42:37.890Z,69.60
2022-07-29T03:45:08.195Z,69.40
2022-07-29T03:47:49.529Z,69.40
2022-07-29T03:50:20.547Z,70.90
2022-07-29T03:52:48.291Z,70.00
2022-07-29T03:55:16.046Z,69.90
2022-07-29T03:57:45.202Z,70.00
2022-07-29T04:00:12.648Z,70.00
2022-07-29T04:02:39.759Z,70.30
2022-07-29T04:05:07.407Z,70.30
2022-07-29T04:07:34.658Z,70.40
2022-07-29T04:10:01.779Z,70.70
2022-07-29T04:12:29.122Z,70.90
2022-07-29T04:14:56.248Z,70.70
2022-07-29T04:17:23.481Z,70.10
2022-07-29T04:19:50.888Z,70.20
2022-07-29T04:22:18.081Z,70.20
2022-07-29T04:24:48.283Z,70.50
2022-07-29T04:27:15.811Z,70.10
2022-07-29T04:29:57.316Z,70.60
2022-07-29T04:32:25.706Z,70.40
2022-07-29T04:34:53.873Z,70.20
2022-07-29T04:37:20.983Z,70.20
2022-07-29T04:39:48.498Z,69.80
2022-07-29T04:42:15.737Z,69.80
2022-07-29T04:44:45.024Z,70.10
2022-07-29T04:47:13.006Z,69.70
2022-07-29T04:49:40.832Z,69.80
2022-07-29T04:52:08.084Z,69.70
2022-07-29T04:54:35.381Z,68.70
2022-07-29T04:57:02.560Z,69.00
2022-07-29T04:59:29.784Z,69.10
2022-07-29T05:01:57.135Z,68.80
2022-07-29T05:04:24.454Z,68.90
2022-07-29T05:06:51.547Z,68.70
2022-07-29T05:09:18.786Z,69.10
2022-07-29T05:11:45.990Z,68.80
2022-07-29T05:14:14.525Z,68.80
2022-07-29T05:16:44.508Z,68.60
2022-07-29T05:19:14.375Z,68.20
2022-07-29T05:21:42.014Z,68.10
2022-07-29T05:24:09.360Z,68.40
2022-07-29T05:26:36.515Z,67.50
2022-07-29T05:29:03.762Z,66.80
2022-07-29T05:31:31.256Z,66.20
2022-07-29T05:33:58.530Z,65.70
2022-07-29T05:36:25.697Z,65.30
2022-07-29T05:38:53.417Z,64.60
2022-07-29T05:41:21.050Z,63.80
2022-07-29T05:43:48.215Z,63.50
2022-07-29T05:46:16.500Z,63.30
2022-07-29T05:48:43.906Z,62.60
2022-07-29T05:51:11.260Z,62.40
2022-07-29T05:53:38.687Z,62.00
2022-07-29T05:56:06.567Z,61.90
2022-07-29T05:58:33.832Z,61.50
2022-07-29T06:01:01.856Z,61.50
2022-07-29T06:03:29.277Z,61.10
2022-07-29T06:05:56.460Z,61.10
2022-07-29T06:08:24.003Z,60.90
2022-07-29T06:10:51.254Z,61.00
2022-07-29T06:13:18.390Z,61.30
2022-07-29T06:15:45.948Z,61.10
2022-07-29T06:18:14.853Z,60.40
2022-07-29T06:20:42.276Z,60.80
2022-07-29T06:23:11.030Z,61.00
2022-07-29T06:25:38.744Z,61.20
2022-07-29T06:28:05.907Z,61.50
2022-07-29T06:30:33.597Z,61.30
2022-07-29T06:33:02.439Z,61.70
2022-07-29T06:35:39.353Z,61.50
2022-07-29T06:38:30.060Z,60.80
2022-07-29T06:41:11.272Z,60.20
2022-07-29T06:43:50.730Z,59.90
2022-07-29T06:49:06.995Z,59.70
2022-07-29T06:51:34.617Z,59.60
2022-07-29T06:54:03.417Z,59.20
2022-07-29T06:56:38.625Z,59.00
2022-07-29T06:59:08.381Z,58.60
2022-07-29T07:01:36.668Z,58.60
2022-07-29T07:04:04.039Z,57.80
2022-07-29T07:06:31.527Z,57.70
2022-07-29T07:08:58.587Z,57.60
2022-07-29T07:11:25.714Z,57.70
2022-07-29T07:13:53.102Z,58.20
2022-07-29T07:16:20.274Z,58.20
2022-07-29T07:18:47.483Z,59.00
2022-07-29T07:21:19.266Z,59.20
2022-07-29T07:23:47.375Z,59.40
2022-07-29T07:26:15.451Z,59.70
2022-07-29T07:28:42.804Z,59.50
2022-07-29T07:31:10.627Z,60.20
2022-07-29T07:33:37.974Z,60.30
2022-07-29T07:36:05.329Z,60.30
2022-07-29T07:38:32.524Z,60.70
2022-07-29T07:40:59.924Z,60.60
2022-07-29T07:43:27.191Z,60.20
2022-07-29T07:45:54.388Z,59.80
2022-07-29T07:48:21.910Z,59.50
2022-07-29T07:50:51.826Z,59.00
2022-07-29T07:53:19.028Z,58.80
2022-07-29T07:56:09.961Z,58.90
2022-07-29T07:58:34.203Z,58.60
2022-07-29T08:01:01.569Z,56.80
2022-07-29T08:03:28.734Z,56.90
2022-07-29T08:05:56.581Z,56.80
2022-07-29T08:08:23.777Z,56.60
2022-07-29T08:10:53.485Z,55.40
2022-07-29T08:13:21.550Z,54.60
2022-07-29T08:15:48.905Z,54.50
2022-07-29T08:18:16.097Z,54.90
2022-07-29T08:20:45.602Z,53.80
2022-07-29T08:23:12.869Z,52.80
2022-07-29T08:25:40.851Z,51.40
2022-07-29T08:28:08.368Z,51.40
2022-07-29T08:30:35.840Z,49.40
2022-07-29T08:33:03.151Z,49.90
2022-07-29T08:35:35.081Z,52.50
2022-07-29T08:38:04.579Z,52.20
2022-07-29T08:40:32.834Z,50.60
2022-07-29T08:43:06.389Z,49.20
2022-07-29T08:45:48.567Z,49.90
2022-07-29T08:48:17.286Z,50.00
2022-07-29T08:50:47.898Z,50.40
2022-07-29T08:53:17.814Z,51.10
2022-07-29T08:55:50.768Z,50.20
2022-07-29T08:58:20.434Z,49.80
2022-07-29T09:00:56.218Z,50.00
2022-07-29T09:03:28.562Z,50.30
2022-07-29T09:05:55.999Z,47.80
2022-07-29T09:08:23.277Z,48.50
2022-07-29T09:10:50.549Z,46.90
2022-07-29T09:13:17.866Z,46.90
2022-07-29T09:15:46.136Z,46.10
2022-07-29T09:18:20.633Z,43.20
2022-07-29T09:21:17.210Z,43.10
2022-07-29T09:24:16.244Z,44.10
2022-07-29T09:26:45.178Z,40.50
2022-07-29T09:29:17.618Z,42.60
2022-07-29T09:31:49.414Z,43.00
2022-07-29T09:34:37.053Z,44.20
2022-07-29T09:37:04.401Z,42.40
2022-07-29T09:39:37.509Z,42.50
2022-07-29T09:42:06.331Z,41.50
2022-07-29T09:44:47.204Z,41.90
2022-07-29T09:47:17.427Z,39.40
2022-07-29T09:49:59.066Z,37.90
2022-07-29T09:52:29.963Z,39.80
2022-07-29T09:55:13.834Z,40.80
2022-07-29T09:57:46.448Z,40.50
2022-07-29T10:00:21.148Z,39.90
2022-07-29T10:02:48.750Z,40.10
2022-07-29T10:05:24.045Z,41.00
2022-07-29T10:07:54.113Z,39.90
2022-07-29T10:10:22.977Z,39.80
2022-07-29T10:12:55.431Z,39.00
2022-07-29T10:15:24.181Z,38.50
2022-07-29T10:17:52.541Z,38.40
2022-07-29T10:20:20.926Z,38.70
2022-07-29T10:22:53.703Z,37.90
2022-07-29T10:25:21.827Z,37.90
2022-07-29T10:27:49.175Z,37.00
2022-07-29T10:30:17.195Z,37.00
2022-07-29T10:33:09.411Z,37.70
2022-07-29T10:35:51.869Z,36.50
2022-07-29T10:38:56.633Z,36.70
2022-07-29T10:41:43.590Z,35.50
2022-07-29T10:44:23.087Z,36.20
2022-07-29T10:46:51.765Z,35.80
2022-07-29T10:49:19.870Z,36.40
2022-07-29T10:51:59.079Z,36.50
2022-07-29T10:54:42.281Z,36.30
2022-07-29T10:57:53.184Z,35.10
2022-07-29T11:00:16.849Z,33.90
2022-07-29T11:02:46.400Z,35.40
2022-07-29T11:05:21.892Z,35.00
2022-07-29T11:08:19.984Z,33.80
2022-07-29T11:10:51.675Z,33.90
2022-07-29T11:13:48.950Z,34.70
2022-07-29T11:16:16.674Z,33.20
2022-07-29T11:19:16.103Z,33.90
2022-07-29T11:21:58.273Z,32.80
2022-07-29T11:24:30.226Z,34.70
2022-07-29T11:27:18.029Z,33.80
2022-07-29T11:29:54.611Z,32.00
2022-07-29T11:32:24.159Z,32.60
2022-07-29T11:35:17.022Z,33.30
2022-07-29T11:37:55.808Z,32.20
2022-07-29T11:40:25.686Z,33.50
2022-07-29T11:42:53.836Z,32.90
2022-07-29T11:45:43.764Z,32.40
2022-07-29T11:48:29.340Z,33.20
2022-07-29T11:50:59.386Z,32.00
2022-07-29T11:56:16.997Z,32.40
2022-07-29T11:58:47.346Z,32.80
2022-07-29T12:01:15.680Z,32.40
2022-07-29T12:03:45.935Z,32.00
2022-07-29T12:06:17.603Z,32.40
2022-07-29T12:08:45.714Z,31.90
2022-07-29T12:11:20.364Z,32.70
2022-07-29T12:13:49.946Z,31.70
2022-07-29T12:16:25.699Z,31.60
2022-07-29T12:19:00.540Z,31.90
2022-07-29T12:21:29.952Z,31.00
2022-07-29T12:24:03.501Z,32.10
2022-07-29T12:27:12.499Z,31.30
2022-07-29T12:30:08.774Z,30.20
2022-07-29T12:32:38.475Z,29.60
2022-07-29T12:35:18.986Z,31.30
2022-07-29T12:37:49.291Z,30.30
2022-07-29T12:40:19.838Z,31.20
2022-07-29T12:43:18.055Z,31.30
2022-07-29T12:45:58.121Z,29.60
2022-07-29T12:48:35.243Z,29.60
2022-07-29T12:51:03.608Z,30.00
2022-07-29T12:53:30.920Z,29.30
2022-07-29T12:56:00.987Z,29.90
2022-07-29T12:58:38.018Z,29.70
2022-07-29T13:01:17.087Z,28.80
2022-07-29T13:03:57.762Z,29.30
2022-07-29T13:06:35.722Z,29.40
2022-07-29T13:09:08.206Z,28.40
2022-07-29T13:11:45.289Z,29.30
2022-07-29T13:14:16.122Z,28.80
2022-07-29T13:17:19.253Z,28.60
2022-07-29T13:19:50.769Z,28.80
2022-07-29T13:22:26.167Z,29.50
2022-07-29T13:25:03.089Z,30.00
2022-07-29T13:27:33.350Z,30.00
2022-07-29T13:30:01.836Z,29.60
2022-07-29T13:32:30.059Z,29.60
2022-07-29T13:34:58.230Z,29.90
2022-07-29T13:37:25.746Z,29.30
2022-07-29T13:39:54.119Z,29.40
2022-07-29T13:42:23.003Z,29.60
2022-07-29T13:44:51.950Z,29.60
2022-07-29T13:47:20.332Z,29.90
2022-07-29T13:49:47.938Z,30.00
2022-07-29T13:52:16.817Z,29.40
2022-07-29T13:54:47.102Z,29.40
2022-07-29T13:57:17.418Z,29.30
2022-07-29T13:59:48.358Z,29.20
2022-07-29T14:02:17.989Z,28.90
2022-07-29T14:04:45.724Z,28.70
2022-07-29T14:07:16.396Z,28.90
2022-07-29T14:09:44.101Z,28.80
2022-07-29T14:12:11.582Z,28.70
2022-07-29T14:14:38.837Z,28.60
2022-07-29T14:17:07.827Z,28.60
2022-07-29T14:19:39.417Z,28.30
2022-07-29T14:22:07.134Z,28.80
2022-07-29T14:24:34.653Z,28.80
2022-07-29T14:27:05.663Z,28.50
2022-07-29T14:29:37.213Z,27.70
2022-07-29T14:32:09.481Z,27.50
2022-07-29T14:34:37.474Z,27.30
2022-07-29T14:37:06.754Z,27.10
2022-07-29T14:39:36.920Z,26.00
2022-07-29T14:42:07.023Z,25.30
2022-07-29T14:44:34.118Z,26.80
2022-07-29T14:47:07.747Z,26.70
2022-07-29T14:49:35.996Z,26.60
2022-07-29T14:52:03.882Z,26.10
2022-07-29T14:54:30.963Z,26.10
2022-07-29T14:56:58.786Z,26.30
2022-07-29T14:59:27.323Z,26.30
2022-07-29T15:01:54.475Z,27.00
2022-07-29T15:04:21.918Z,26.80
2022-07-29T15:06:49.464Z,26.90
2022-07-29T15:09:16.577Z,26.90
2022-07-29T15:11:46.649Z,26.50
2022-07-29T15:14:13.997Z,26.60
2022-07-29T15:16:47.026Z,26.60
2022-07-29T15:19:18.694Z,26.90
2022-07-29T15:21:48.537Z,26.60
2022-07-29T15:24:17.710Z,26.80
2022-07-29T15:26:48.459Z,26.90
2022-07-29T15:29:16.283Z,26.50
2022-07-29T15:31:44.125Z,26.70
2022-07-29T15:34:11.777Z,26.80
2022-07-29T15:36:54.423Z,26.80
2022-07-29T15:39:22.023Z,26.70
2022-07-29T15:41:49.309Z,26.50
2022-07-29T15:44:16.504Z,26.70
2022-07-29T15:47:02.730Z,26.80
2022-07-29T15:49:48.027Z,26.80
2022-07-29T15:52:25.930Z,26.40
2022-07-29T15:54:54.874Z,26.20
2022-07-29T15:57:22.508Z,26.50
2022-07-29T15:59:49.663Z,26.60
2022-07-29T16:05:18.450Z,27.00
2022-07-29T16:07:54.960Z,27.10
2022-07-29T16:10:22.280Z,27.40
2022-07-29T16:12:49.465Z,28.40
2022-07-29T16:15:16.694Z,27.90
2022-07-29T16:17:44.948Z,27.60
2022-07-29T16:20:13.819Z,27.80
2022-07-29T16:22:41.340Z,27.90
2022-07-29T16:25:09.133Z,27.50
2022-07-29T16:27:37.785Z,28.10
2022-07-29T16:30:07.145Z,27.70
2022-07-29T16:32:34.850Z,27.40
2022-07-29T16:35:03.075Z,26.70
2022-07-29T16:37:33.912Z,26.80
2022-07-29T16:40:01.569Z,26.50
2022-07-29T16:42:45.549Z,26.70
2022-07-29T16:45:16.021Z,26.40
2022-07-29T16:47:45.603Z,26.70
2022-07-29T16:50:12.861Z,26.40
2022-07-29T16:52:40.601Z,26.30
2022-07-29T16:55:08.063Z,26.70
2022-07-29T16:57:35.375Z,26.90
2022-07-29T17:00:02.815Z,27.10
2022-07-29T17:02:30.254Z,27.30
2022-07-29T17:04:57.734Z,27.20
2022-07-29T17:07:25.145Z,27.30
2022-07-29T17:09:55.576Z,27.40
2022-07-29T17:12:23.601Z,27.40
2022-07-29T17:14:50.915Z,27.40
2022-07-29T17:17:20.824Z,27.80
2022-07-29T17:20:05.926Z,27.90
2022-07-29T17:22:33.125Z,27.70
2022-07-29T17:25:00.229Z,28.10
2022-07-29T17:27:28.215Z,28.10
2022-07-29T17:29:55.344Z,28.40
2022-07-29T17:32:22.438Z,28.50
2022-07-29T17:34:49.750Z,28.50
2022-07-29T17:37:17.015Z,29.10
2022-07-29T17:39:47.016Z,31.70
2022-07-29T17:42:17.746Z,32.20
2022-07-29T17:44:48.126Z,32.60
2022-07-29T17:47:18.813Z,33.00
2022-07-29T17:49:46.089Z,34.30
2022-07-29T17:52:13.835Z,34.00
2022-07-29T17:54:41.496Z,34.70
2022-07-29T17:57:08.980Z,34.70
2022-07-29T17:59:36.095Z,35.20
2022-07-29T18:02:03.869Z,35.60
2022-07-29T18:04:31.622Z,35.30
2022-07-29T18:06:59.266Z,35.20
2022-07-29T18:09:27.301Z,35.30
2022-07-29T18:11:54.597Z,34.90
2022-07-29T18:14:21.694Z,34.80
2022-07-29T18:16:49.181Z,34.90
2022-07-29T18:19:16.516Z,35.20
2022-07-29T18:21:53.891Z,35.60
2022-07-29T18:24:25.823Z,36.00
2022-07-29T18:26:53.376Z,36.30
2022-07-29T18:29:20.454Z,36.70
2022-07-29T18:31:47.777Z,37.20
2022-07-29T18:34:17.942Z,37.70
2022-07-29T18:36:46.104Z,37.50
2022-07-29T18:39:20.065Z,37.70
2022-07-29T18:41:52.074Z,37.60
2022-07-29T18:44:22.007Z,37.60
2022-07-29T18:46:51.288Z,37.70
2022-07-29T18:49:18.716Z,38.20
2022-07-29T18:51:46.237Z,38.30
2022-07-29T18:54:15.831Z,38.90
2022-07-29T18:56:43.824Z,39.00
2022-07-29T18:59:11.711Z,38.90
2022-07-29T19:01:38.959Z,39.30
2022-07-29T19:04:06.305Z,39.60
2022-07-29T19:06:33.776Z,40.00
2022-07-29T19:09:01.015Z,39.90
2022-07-29T19:11:28.141Z,39.50
2022-07-29T19:13:55.539Z,39.30
2022-07-29T19:16:22.750Z,39.50
2022-07-29T19:18:50.070Z,39.30
2022-07-29T19:21:20.972Z,39.30
2022-07-29T19:24:06.059Z,39.70
2022-07-29T19:26:36.859Z,39.80
2022-07-29T19:29:04.171Z,40.40
2022-07-29T19:31:31.341Z,40.30
2022-07-29T19:33:58.723Z,40.40
2022-07-29T19:36:27.371Z,40.50
2022-07-29T19:38:54.602Z,40.80
2022-07-29T19:41:22.192Z,40.80
2022-07-29T19:43:52.685Z,41.40
2022-07-29T19:46:23.940Z,41.50
2022-07-29T19:48:51.450Z,42.10
2022-07-29T19:51:18.699Z,42.30
2022-07-29T19:53:46.099Z,42.00
2022-07-29T19:56:15.606Z,42.80
2022-07-29T19:58:44.191Z,42.80
2022-07-29T20:01:12.771Z,42.60
2022-07-29T20:03:40.173Z,43.00
2022-07-29T20:06:13.038Z,43.30
2022-07-29T20:08:42.472Z,43.50
2022-07-29T20:11:09.725Z,43.20
2022-07-29T20:13:36.844Z,44.10
2022-07-29T20:16:06.698Z,44.20
2022-07-29T20:18:34.079Z,44.20
2022-07-29T20:21:01.705Z,44.50
2022-07-29T20:23:33.506Z,44.80
2022-07-29T20:26:00.850Z,45.00
2022-07-29T20:28:27.916Z,45.10
2022-07-29T20:30:55.371Z,45.70
2022-07-29T20:33:22.526Z,46.10
2022-07-29T20:35:49.770Z,45.90
2022-07-29T20:38:18.494Z,46.30
2022-07-29T20:40:45.796Z,46.00
2022-07-29T20:43:13.042Z,47.40
2022-07-29T20:45:41.405Z,47.90
2022-07-29T20:48:08.647Z,47.90
2022-07-29T20:50:36.105Z,48.00
2022-07-29T20:53:03.457Z,48.00
2022-07-29T20:55:32.208Z,48.00
2022-07-29T20:57:59.337Z,48.30
2022-07-29T21:00:27.303Z,48.50
2022-07-29T21:02:54.599Z,49.00
2022-07-29T21:05:21.806Z,49.00
2022-07-29T21:07:49.113Z,49.20
2022-07-29T21:10:18.484Z,49.30
2022-07-29T21:12:48.842Z,49.80
2022-07-29T21:15:16.617Z,50.00
2022-07-29T21:18:00.516Z,49.90
2022-07-29T21:20:30.780Z,49.80
2022-07-29T21:22:58.153Z,50.40
2022-07-29T21:25:25.485Z,50.50
2022-07-29T21:28:11.157Z,51.40
2022-07-29T21:30:38.364Z,50.50
2022-07-29T21:33:05.804Z,50.60
2022-07-29T21:36:06.873Z,51.20
2022-07-29T21:38:20.847Z,51.50
2022-07-29T21:40:49.584Z,52.30
2022-07-29T21:43:16.832Z,51.90
2022-07-29T21:45:44.588Z,52.30
2022-07-29T21:48:11.998Z,52.40
2022-07-29T21:50:39.303Z,52.80
2022-07-29T21:53:06.663Z,52.40
2022-07-29T21:55:34.074Z,53.10
2022-07-29T21:58:01.256Z,52.50
2022-07-29T22:00:29.040Z,53.10
2022-07-29T22:02:56.533Z,53.10
2022-07-29T22:05:23.740Z,53.10
2022-07-29T22:07:54.575Z,52.60
2022-07-29T22:10:28.354Z,52.80
2022-07-29T22:12:58.126Z,53.10
2022-07-29T22:15:25.867Z,52.90
2022-07-29T22:17:53.450Z,52.80
2022-07-29T22:20:20.865Z,53.30
2022-07-29T22:22:48.490Z,53.20
2022-07-29T22:25:15.913Z,53.60
2022-07-29T22:27:43.033Z,53.70
2022-07-29T22:30:11.264Z,53.80
2022-07-29T22:32:38.807Z,53.90
2022-07-29T22:35:06.396Z,54.30
2022-07-29T22:37:33.717Z,54.10
2022-07-29T22:40:01.137Z,54.40
2022-07-29T22:42:28.417Z,54.40
2022-07-29T22:44:55.724Z,55.10
2022-07-29T22:47:46.702Z,55.10
2022-07-29T22:50:10.813Z,55.30
2022-07-29T22:52:38.216Z,55.00
2022-07-29T22:55:05.604Z,54.90
2022-07-29T22:57:34.401Z,54.60
2022-07-29T23:00:02.923Z,54.70
2022-07-29T23:02:30.249Z,55.10
2022-07-29T23:04:57.429Z,54.30
2022-07-29T23:07:25.734Z,54.50
2022-07-29T23:09:53.102Z,54.40
2022-07-29T23:12:20.449Z,54.20
2022-07-29T23:14:47.780Z,54.10
2022-07-29T23:17:15.501Z,53.80
2022-07-29T23:19:42.767Z,54.00
2022-07-29T23:22:10.127Z,54.20
2022-07-29T23:24:37.187Z,54.20
2022-07-29T23:27:04.724Z,54.50
2022-07-29T23:29:36.580Z,54.10
2022-07-29T23:32:04.733Z,54.70
2022-07-29T23:34:32.129Z,54.50
2022-07-29T23:36:59.488Z,54.90
2022-07-29T23:39:26.873Z,54.30
2022-07-29T23:41:54.199Z,54.30
2022-07-29T23:44:21.573Z,54.50
2022-07-29T23:46:48.784Z,53.90
2022-07-29T23:49:16.306Z,54.80
2022-07-29T23:51:45.768Z,54.00
2022-07-29T23:54:12.967Z,54.00
2022-07-29T23:56:41.739Z,53.90
2022-07-29T23:59:09.072Z,54.40
